Airfield :
LOGIN :

Register | Disclaimer

   EN    FR    IT 

 










Legend :    VFR   Marginal VFR   IFR   Intensive IFR   Very Intensive IFR
Visi :
Ceiling :
>= 8 km
>= 3000ft
5 to 8 km
1000 to 3000 ft
1500m to 5 km
500 to 1000 ft
800 to 1500m
200 to 500 ft
< 800m
< 200 ft
Symbols :   Thunderstorms  Fog  Heavy snow  Heavy precipitations  Wind > 20 kt
SIGMETs :     Misc.  Thunderstorms  Icing  Turbulence  Mountain Waves  Volcanic Ashes







- Airport Elevation : 36 ft
- IATA code : GJL


DAAV - Jijel Ferhat Abbas

METAR N/A
TAF TAF DAAV
Valid from the 23 at 18:00 until the 24 at 18:00 UTC


231700Z 2318/2418 28008KT 8000 FEW016CB BKN023
BECMG 2411/2413 02015KT
No reported NOTAMs for that airfield.
1 SIGMET reported for the Alger FIR (DAAA) :
 
Severe turbulence
DAAA SIGMET 7 VALID 232100/240100 DAAA ALGER FIR SEV TURB FCST WI N3500 E00819 - N3358 E00727 - N3259 E00738 - N2529 W00514 - N3046 W00336 - N3158 W00236 - N3203 W00055 - N3231 W00058 - N3259 W00121 - N3446 E00233 - N3500 E00819 TOP FL280/370 MOV N NC=



MET'MAP, your aeronautical weather chart ! - Copyright ORBIFLY December 2007 - Disclaimer

ORBIFLY MET'MAP TEAM :

Programming & Development : Alexandra Zaïnal
Concept & Development : Baudouin d'Aumeries
Co-Development & Prog : Marc-Olivier Méhu
Technical & hardware support : Manuel Goepfert

Contact : metmap@orbifly.com




SOURCES & CREDITS :

   NOAA